Terminal Aerodrome Forecast
Issued by NWS

Home | Current Version | Previous Version | Graphics & Text | Print | Product List | Glossary On
Versions: 1 2 3 4 5 6 7 8 9 10 11 12 13 14 15 16 17 18 19 20 21 22 23
000
FTUS43 KGRB 282340
TAFAUW
TAF
KAUW 282340Z 2900/2924 21006KT P6SM -RA SCT009 OVC015
      TEMPO 2900/2901 5SM -RA BR BKN009
     FM290100 17005KT 5SM -RA BR BKN009 OVC050
     FM290600 13003KT 5SM BR SCT004 OVC008
      TEMPO 2909/2913 2SM BR BKN004
     FM291500 06004KT 5SM BR OVC008
     FM291800 18005KT P6SM FEW015 BKN050=

USA.gov is the U.S. government's official web portal to all federal, state and local government web resources and services.